Time,TemperatureF,DewpointF,PressureIn,WindDirection,WindDirectionDegrees,WindSpeedMPH,WindSpeedGustMPH,Humidity,HourlyPrecipIn,Conditions,Clouds,dailyrainin,SolarRadiationWatts/m^2,SoftwareType,DateUTC
2013-05-29 00:00:00,52.6,50.6,29.98,WSW,256,1.0,4.0,93,0.00,,,0.00,0,Wunderground v.1.15,2013-05-29 07:00:00,
2013-05-29 00:10:00,52.3,50.3,29.98,NW,308,3.0,5.0,93,0.00,,,0.00,0,Wunderground v.1.15,2013-05-29 07:10:00,
2013-05-29 00:20:00,52.1,50.1,29.99,NW,317,2.0,2.0,93,0.00,,,0.00,0,Wunderground v.1.15,2013-05-29 07:20:00,
2013-05-29 00:30:00,52.2,50.2,29.98,NW,311,1.0,1.0,93,0.00,,,0.00,0,Wunderground v.1.15,2013-05-29 07:30:00,
2013-05-29 00:45:00,52.1,50.1,29.97,NW,306,1.0,1.0,93,0.00,,,0.00,0,Wunderground v.1.15,2013-05-29 07:45:00,
2013-05-29 00:50:00,52.1,50.1,29.97,WNW,300,0.0,1.0,93,0.00,,,0.00,0,Wunderground v.1.15,2013-05-29 07:50:00,
2013-05-29 01:00:00,52.1,50.1,29.97,WNW,296,0.0,0.0,93,0.00,,,0.00,0,Wunderground v.1.15,2013-05-29 08:00:00,
2013-05-29 01:10:00,52.0,50.0,29.98,WNW,285,0.0,0.0,93,0.00,,,0.00,0,Wunderground v.1.15,2013-05-29 08:10:00,
2013-05-29 01:20:00,52.0,50.0,29.98,North,355,1.0,1.0,93,0.00,,,0.00,0,Wunderground v.1.15,2013-05-29 08:20:00,
2013-05-29 01:31:00,51.9,49.9,29.98,NW,313,3.0,7.0,93,0.00,,,0.00,0,Wunderground v.1.15,2013-05-29 08:31:00,
2013-05-29 01:40:00,52.0,50.0,29.98,NW,311,2.0,7.0,93,0.00,,,0.00,0,Wunderground v.1.15,2013-05-29 08:40:00,
2013-05-29 01:50:00,52.0,50.0,29.97,West,267,1.0,3.0,93,0.00,,,0.00,0,Wunderground v.1.15,2013-05-29 08:50:00,
2013-05-29 02:00:00,52.1,50.4,29.96,WNW,286,1.0,1.0,94,0.00,,,0.00,0,Wunderground v.1.15,2013-05-29 09:00:00,
2013-05-29 02:10:00,52.1,50.4,29.96,West,262,2.0,2.0,94,0.00,,,0.00,0,Wunderground v.1.15,2013-05-29 09:10:00,
2013-05-29 02:20:00,52.1,50.1,29.97,West,281,1.0,3.0,93,0.00,,,0.00,0,Wunderground v.1.15,2013-05-29 09:20:00,
2013-05-29 02:31:00,52.1,50.4,29.96,West,267,0.0,0.0,94,0.00,,,0.00,0,Wunderground v.1.15,2013-05-29 09:31:00,
2013-05-29 02:40:00,52.1,50.1,29.97,West,268,0.0,0.0,93,0.00,,,0.00,0,Wunderground v.1.15,2013-05-29 09:40:00,
2013-05-29 02:50:00,52.0,50.0,29.97,West,268,0.0,0.0,93,0.00,,,0.00,0,Wunderground v.1.15,2013-05-29 09:50:00,
2013-05-29 03:00:00,51.9,49.9,29.97,WSW,245,1.0,4.0,93,0.00,,,0.00,0,Wunderground v.1.15,2013-05-29 10:00:00,
2013-05-29 03:10:00,51.8,49.8,29.97,West,281,0.0,4.0,93,0.00,,,0.00,0,Wunderground v.1.15,2013-05-29 10:10:00,
2013-05-29 03:20:00,51.8,49.8,29.97,West,259,1.0,1.0,93,0.00,,,0.00,0,Wunderground v.1.15,2013-05-29 10:20:00,
2013-05-29 03:30:00,51.8,50.1,29.97,WNW,295,2.0,4.0,94,0.00,,,0.00,0,Wunderground v.1.15,2013-05-29 10:30:00,
2013-05-29 03:40:00,51.9,49.9,29.97,WNW,293,2.0,2.0,93,0.00,,,0.00,0,Wunderground v.1.15,2013-05-29 10:40:00,
2013-05-29 03:50:00,51.9,49.9,29.97,West,281,1.0,6.0,93,0.00,,,0.00,0,Wunderground v.1.15,2013-05-29 10:50:00,
2013-05-29 04:00:00,51.9,49.9,29.96,NW,313,4.0,5.0,93,0.00,,,0.00,0,Wunderground v.1.15,2013-05-29 11:00:00,
2013-05-29 04:10:00,51.9,49.6,29.96,WNW,293,4.0,5.0,92,0.00,,,0.00,0,Wunderground v.1.15,2013-05-29 11:10:00,
2013-05-29 04:20:00,52.1,49.8,29.96,WNW,298,2.0,2.0,92,0.00,,,0.00,0,Wunderground v.1.15,2013-05-29 11:20:00,
2013-05-29 04:30:00,52.1,49.6,29.96,NNW,328,4.0,4.0,91,0.00,,,0.00,0,Wunderground v.1.15,2013-05-29 11:30:00,
2013-05-29 04:40:00,52.2,49.7,29.96,WNW,303,4.0,4.0,91,0.00,,,0.00,0,Wunderground v.1.15,2013-05-29 11:40:00,
2013-05-29 04:50:00,52.3,49.8,29.97,WNW,301,3.0,4.0,91,0.00,,,0.00,0,Wunderground v.1.15,2013-05-29 11:50:00,
2013-05-29 05:00:00,52.4,49.8,29.96,WNW,294,2.0,6.0,91,0.00,,,0.00,0,Wunderground v.1.15,2013-05-29 12:00:00,
2013-05-29 05:10:00,52.3,49.8,29.97,WNW,297,3.0,3.0,91,0.00,,,0.00,0,Wunderground v.1.15,2013-05-29 12:10:00,
2013-05-29 05:20:00,52.3,49.8,29.97,West,277,1.0,1.0,91,0.00,,,0.00,0,Wunderground v.1.15,2013-05-29 12:20:00,
2013-05-29 05:30:00,52.3,50.0,29.96,West,274,1.0,1.0,92,0.00,,,0.00,0,Wunderground v.1.15,2013-05-29 12:30:00,
2013-05-29 05:40:00,52.4,50.1,29.96,WSW,255,1.0,1.0,92,0.00,,,0.00,0,Wunderground v.1.15,2013-05-29 12:40:00,
2013-05-29 05:50:00,52.5,49.9,29.96,SW,234,2.0,3.0,91,0.00,,,0.00,0,Wunderground v.1.15,2013-05-29 12:50:00,
2013-05-29 06:00:00,52.5,49.9,29.96,WSW,255,1.0,1.0,91,0.00,,,0.00,9,Wunderground v.1.15,2013-05-29 13:00:00,
2013-05-29 06:10:00,52.5,49.9,29.96,NW,309,1.0,3.0,91,0.00,,,0.00,14,Wunderground v.1.15,2013-05-29 13:10:00,
2013-05-29 06:20:00,52.6,50.0,29.97,WNW,302,2.0,5.0,91,0.00,,,0.00,18,Wunderground v.1.15,2013-05-29 13:20:00,
2013-05-29 06:30:00,52.6,50.0,29.97,NW,306,2.0,2.0,91,0.00,,,0.00,35,Wunderground v.1.15,2013-05-29 13:30:00,
2013-05-29 06:40:00,52.8,49.9,29.97,WSW,250,2.0,5.0,90,0.00,,,0.00,74,Wunderground v.1.15,2013-05-29 13:40:00,
2013-05-29 06:50:00,52.9,50.0,29.97,West,276,2.0,6.0,90,0.00,,,0.00,58,Wunderground v.1.15,2013-05-29 13:50:00,
2013-05-29 07:00:00,53.1,50.2,29.97,WNW,282,1.0,1.0,90,0.00,,,0.00,63,Wunderground v.1.15,2013-05-29 14:00:00,
2013-05-29 07:10:00,53.3,50.4,29.98,WNW,292,1.0,4.0,90,0.00,,,0.00,116,Wunderground v.1.15,2013-05-29 14:10:00,
2013-05-29 07:20:00,53.5,50.6,29.98,West,279,1.0,3.0,90,0.00,,,0.00,127,Wunderground v.1.15,2013-05-29 14:20:00,
2013-05-29 07:30:00,53.8,50.6,29.98,West,265,2.0,2.0,89,0.00,,,0.00,116,Wunderground v.1.15,2013-05-29 14:30:00,
2013-05-29 07:40:00,54.1,50.9,29.98,West,281,2.0,4.0,89,0.00,,,0.00,251,Wunderground v.1.15,2013-05-29 14:40:00,
2013-05-29 07:50:00,54.6,51.4,29.98,West,276,1.0,4.0,89,0.00,,,0.00,149,Wunderground v.1.15,2013-05-29 14:50:00,
2013-05-29 08:00:00,54.8,51.3,29.99,WNW,285,2.0,6.0,88,0.00,,,0.00,102,Wunderground v.1.15,2013-05-29 15:00:00,
2013-05-29 08:10:00,54.7,50.9,29.99,WNW,301,3.0,3.0,87,0.00,,,0.00,88,Wunderground v.1.15,2013-05-29 15:10:00,
2013-05-29 08:20:00,54.6,51.1,29.99,NW,315,3.0,4.0,88,0.00,,,0.00,98,Wunderground v.1.15,2013-05-29 15:20:00,
2013-05-29 08:30:00,54.6,51.4,29.99,WNW,298,3.0,6.0,89,0.00,,,0.00,123,Wunderground v.1.15,2013-05-29 15:30:00,
2013-05-29 08:40:00,54.7,51.5,29.99,NW,305,1.0,3.0,89,0.00,,,0.00,141,Wunderground v.1.15,2013-05-29 15:40:00,
2013-05-29 08:50:00,54.8,51.6,30.00,WNW,288,4.0,4.0,89,0.00,,,0.00,160,Wunderground v.1.15,2013-05-29 15:50:00,
2013-05-29 09:00:00,54.9,51.7,30.00,NW,311,5.0,8.0,89,0.00,,,0.00,125,Wunderground v.1.15,2013-05-29 16:00:00,
2013-05-29 09:10:00,54.8,51.6,30.00,West,281,4.0,4.0,89,0.00,,,0.00,121,Wunderground v.1.15,2013-05-29 16:10:00,
2013-05-29 09:20:00,54.7,51.8,30.00,WNW,287,3.0,4.0,90,0.00,,,0.00,125,Wunderground v.1.15,2013-05-29 16:20:00,
2013-05-29 09:30:00,54.8,51.9,30.00,NNE,22,3.0,5.0,90,0.00,,,0.00,135,Wunderground v.1.15,2013-05-29 16:30:00,
2013-05-29 09:40:00,55.0,52.4,30.00,NNE,28,1.0,1.0,91,0.00,,,0.00,121,Wunderground v.1.15,2013-05-29 16:40:00,
2013-05-29 09:50:00,55.1,52.5,30.00,NNE,27,0.0,0.0,91,0.00,,,0.00,151,Wunderground v.1.15,2013-05-29 16:50:00,
2013-05-29 10:00:00,55.1,52.5,30.00,North,350,2.0,2.0,91,0.00,,,0.00,165,Wunderground v.1.15,2013-05-29 17:00:00,
2013-05-29 10:10:00,55.0,52.4,30.00,NW,323,2.0,2.0,91,0.00,,,0.00,192,Wunderground v.1.15,2013-05-29 17:10:00,
2013-05-29 10:20:00,55.3,52.7,30.00,NNE,18,1.0,5.0,91,0.00,,,0.00,278,Wunderground v.1.15,2013-05-29 17:20:00,
2013-05-29 10:30:00,55.2,52.6,30.00,NNE,24,7.0,8.0,91,0.00,,,0.00,241,Wunderground v.1.15,2013-05-29 17:30:00,
2013-05-29 10:40:00,55.3,52.7,30.00,NE,36,8.0,10.0,91,0.00,,,0.00,353,Wunderground v.1.15,2013-05-29 17:40:00,
2013-05-29 10:50:00,55.5,53.2,29.99,NNE,17,9.0,10.0,92,0.00,,,0.00,468,Wunderground v.1.15,2013-05-29 17:50:00,
2013-05-29 11:00:00,56.3,53.7,29.98,NNE,27,11.0,11.0,91,0.00,,,0.00,294,Wunderground v.1.15,2013-05-29 18:00:00,
2013-05-29 11:10:00,56.8,53.9,29.99,NNE,24,8.0,8.0,90,0.00,,,0.00,285,Wunderground v.1.15,2013-05-29 18:10:00,
2013-05-29 11:20:00,56.6,53.4,30.00,North,5,8.0,8.0,89,0.00,,,0.00,248,Wunderground v.1.15,2013-05-29 18:20:00,
2013-05-29 11:30:00,56.6,53.4,30.00,North,5,7.0,7.0,89,0.00,,,0.00,243,Wunderground v.1.15,2013-05-29 18:30:00,
2013-05-29 11:40:00,56.7,53.5,30.00,NNW,332,5.0,8.0,89,0.00,,,0.00,269,Wunderground v.1.15,2013-05-29 18:40:00,
2013-05-29 11:50:00,56.9,53.4,30.01,NNW,344,7.0,7.0,88,0.00,,,0.00,248,Wunderground v.1.15,2013-05-29 18:50:00,
2013-05-29 12:00:00,57.1,53.6,30.01,North,355,6.0,9.0,88,0.00,,,0.00,165,Wunderground v.1.15,2013-05-29 19:00:00,
2013-05-29 12:10:00,57.1,53.6,30.00,NW,326,6.0,6.0,88,0.00,,,0.00,302,Wunderground v.1.15,2013-05-29 19:10:00,
2013-05-29 12:20:00,57.6,53.8,30.00,NNW,341,8.0,8.0,87,0.00,,,0.00,362,Wunderground v.1.15,2013-05-29 19:20:00,
2013-05-29 12:30:00,58.0,53.8,30.00,NNW,344,8.0,11.0,86,0.00,,,0.00,432,Wunderground v.1.15,2013-05-29 19:30:00,
2013-05-29 12:40:00,58.4,53.6,30.00,North,5,7.0,12.0,84,0.00,,,0.00,378,Wunderground v.1.15,2013-05-29 19:40:00,
2013-05-29 12:50:00,58.1,53.6,30.00,North,9,10.0,14.0,85,0.00,,,0.00,494,Wunderground v.1.15,2013-05-29 19:50:00,
2013-05-29 13:00:00,58.5,54.0,30.00,North,349,10.0,10.0,85,0.00,,,0.00,803,Wunderground v.1.15,2013-05-29 20:00:00,
2013-05-29 13:10:00,59.0,53.8,29.99,NNW,343,10.0,10.0,83,0.00,,,0.00,1429,Wunderground v.1.15,2013-05-29 20:10:00,
2013-05-29 13:20:00,58.4,53.3,29.99,NNE,23,9.0,9.0,83,0.00,,,0.00,510,Wunderground v.1.15,2013-05-29 20:20:00,
2013-05-29 13:31:00,58.2,53.4,29.98,North,5,9.0,9.0,84,0.00,,,0.00,408,Wunderground v.1.15,2013-05-29 20:31:00,
2013-05-29 13:40:00,58.3,53.2,29.98,WNW,294,7.0,7.0,83,0.00,,,0.00,362,Wunderground v.1.15,2013-05-29 20:40:00,
2013-05-29 13:50:00,58.2,52.7,29.99,NNW,329,8.0,9.0,82,0.00,,,0.00,1107,Wunderground v.1.15,2013-05-29 20:50:00,
2013-05-29 14:00:00,58.7,53.2,29.98,NNE,28,8.0,9.0,82,0.00,,,0.00,1192,Wunderground v.1.15,2013-05-29 21:00:00,
2013-05-29 14:10:00,59.0,52.8,29.98,NW,323,9.0,9.0,80,0.00,,,0.00,1053,Wunderground v.1.15,2013-05-29 21:10:00,
2013-05-29 14:21:00,59.5,53.0,29.98,North,350,9.0,14.0,79,0.00,,,0.00,501,Wunderground v.1.15,2013-05-29 21:21:00,
2013-05-29 14:30:00,59.2,52.7,29.97,NNW,331,10.0,10.0,79,0.00,,,0.00,1018,Wunderground v.1.15,2013-05-29 21:30:00,
2013-05-29 14:40:00,59.0,52.8,29.98,NNW,342,10.0,12.0,80,0.00,,,0.00,1044,Wunderground v.1.15,2013-05-29 21:40:00,
2013-05-29 14:50:00,59.6,53.4,29.98,North,350,9.0,9.0,80,0.00,,,0.00,1016,Wunderground v.1.15,2013-05-29 21:50:00,
2013-05-29 15:01:00,59.5,53.0,29.98,NNE,27,9.0,12.0,79,0.00,,,0.00,1049,Wunderground v.1.15,2013-05-29 22:01:00,
2013-05-29 15:10:00,59.5,53.0,29.98,NNW,342,10.0,13.0,79,0.00,,,0.00,1067,Wunderground v.1.15,2013-05-29 22:10:00,
2013-05-29 15:20:00,59.9,53.0,29.97,NNE,17,9.0,10.0,78,0.00,,,0.00,816,Wunderground v.1.15,2013-05-29 22:20:00,
2013-05-29 15:30:00,60.3,53.4,29.97,North,355,8.0,8.0,78,0.00,,,0.00,877,Wunderground v.1.15,2013-05-29 22:30:00,
2013-05-29 15:41:00,60.5,52.9,29.97,North,355,9.0,10.0,76,0.00,,,0.00,844,Wunderground v.1.15,2013-05-29 22:41:00,
2013-05-29 15:50:00,60.8,52.8,29.97,NNW,336,9.0,14.0,75,0.00,,,0.00,821,Wunderground v.1.15,2013-05-29 22:50:00,
2013-05-29 16:00:00,60.6,52.6,29.97,NW,317,9.0,9.0,75,0.00,,,0.00,793,Wunderground v.1.15,2013-05-29 23:00:00,
2013-05-29 16:10:00,60.6,51.5,29.97,NNW,331,10.0,12.0,72,0.00,,,0.00,766,Wunderground v.1.15,2013-05-29 23:10:00,
2013-05-29 16:20:00,60.8,52.5,29.96,NNE,13,10.0,12.0,74,0.00,,,0.00,752,Wunderground v.1.15,2013-05-29 23:20:00,
2013-05-29 16:30:00,61.3,53.3,29.96,North,360,9.0,9.0,75,0.00,,,0.00,722,Wunderground v.1.15,2013-05-29 23:30:00,
2013-05-29 16:40:00,61.0,53.0,29.96,NNE,14,9.0,9.0,75,0.00,,,0.00,696,Wunderground v.1.15,2013-05-29 23:40:00,
2013-05-29 16:50:00,61.3,53.3,29.96,NE,36,7.0,7.0,75,0.00,,,0.00,666,Wunderground v.1.15,2013-05-29 23:50:00,
2013-05-29 17:00:00,61.2,52.8,29.96,NW,305,7.0,9.0,74,0.00,,,0.00,635,Wunderground v.1.15,2013-05-30 00:00:00,
2013-05-29 17:10:00,61.3,53.3,29.96,WNW,302,6.0,7.0,75,0.00,,,0.00,603,Wunderground v.1.15,2013-05-30 00:10:00,
2013-05-29 17:21:00,61.3,52.9,29.96,NW,317,6.0,6.0,74,0.00,,,0.00,577,Wunderground v.1.15,2013-05-30 00:21:00,
2013-05-29 17:30:00,61.5,52.8,29.95,NW,320,6.0,6.0,73,0.00,,,0.00,545,Wunderground v.1.15,2013-05-30 00:30:00,
2013-05-29 17:41:00,61.1,52.4,29.95,NW,312,6.0,6.0,73,0.00,,,0.00,512,Wunderground v.1.15,2013-05-30 00:41:00,
2013-05-29 17:50:00,60.8,52.5,29.95,NW,317,5.0,10.0,74,0.00,,,0.00,482,Wunderground v.1.15,2013-05-30 00:50:00,
2013-05-29 18:00:00,61.0,52.3,29.95,NNW,344,6.0,6.0,73,0.00,,,0.00,446,Wunderground v.1.15,2013-05-30 01:00:00,
2013-05-29 18:11:00,61.1,52.0,29.95,NW,320,5.0,6.0,72,0.00,,,0.00,415,Wunderground v.1.15,2013-05-30 01:11:00,
2013-05-29 18:20:00,61.2,52.1,29.95,NNW,338,4.0,4.0,72,0.00,,,0.00,383,Wunderground v.1.15,2013-05-30 01:20:00,
2013-05-29 18:30:00,61.3,52.2,29.95,WNW,303,4.0,4.0,72,0.00,,,0.00,350,Wunderground v.1.15,2013-05-30 01:30:00,
2013-05-29 18:40:00,60.8,52.1,29.94,NW,307,4.0,4.0,73,0.00,,,0.00,313,Wunderground v.1.15,2013-05-30 01:40:00,
2013-05-29 18:50:00,60.9,52.2,29.94,WNW,302,1.0,1.0,73,0.00,,,0.00,278,Wunderground v.1.15,2013-05-30 01:50:00,
2013-05-29 19:00:00,61.0,52.3,29.94,WSW,257,2.0,2.0,73,0.00,,,0.00,241,Wunderground v.1.15,2013-05-30 02:00:00,
2013-05-29 19:11:00,60.4,52.4,29.94,West,267,2.0,3.0,75,0.00,,,0.00,204,Wunderground v.1.15,2013-05-30 02:11:00,
2013-05-29 19:20:00,60.0,52.1,29.95,West,280,1.0,1.0,75,0.00,,,0.00,165,Wunderground v.1.15,2013-05-30 02:20:00,
2013-05-29 19:30:00,59.7,52.1,29.95,West,269,2.0,4.0,76,0.00,,,0.00,125,Wunderground v.1.15,2013-05-30 02:30:00,
2013-05-29 19:41:00,59.1,51.9,29.95,NW,306,4.0,4.0,77,0.00,,,0.00,33,Wunderground v.1.15,2013-05-30 02:41:00,
2013-05-29 19:50:00,58.4,51.6,29.95,NW,309,3.0,3.0,78,0.00,,,0.00,25,Wunderground v.1.15,2013-05-30 02:50:00,
2013-05-29 20:00:00,57.8,51.0,29.95,NW,309,2.0,6.0,78,0.00,,,0.00,19,Wunderground v.1.15,2013-05-30 03:00:00,
2013-05-29 20:10:00,57.1,51.0,29.95,NW,309,1.0,1.0,80,0.00,,,0.00,16,Wunderground v.1.15,2013-05-30 03:10:00,
2013-05-29 20:21:00,56.4,50.3,29.95,NW,309,0.0,0.0,80,0.00,,,0.00,7,Wunderground v.1.15,2013-05-30 03:21:00,
2013-05-29 20:30:00,56.0,50.3,29.95,WNW,288,0.0,0.0,81,0.00,,,0.00,0,Wunderground v.1.15,2013-05-30 03:30:00,
2013-05-29 20:40:00,55.3,49.9,29.95,WSW,258,1.0,2.0,82,0.00,,,0.00,0,Wunderground v.1.15,2013-05-30 03:40:00,
2013-05-29 20:50:00,54.7,49.6,29.95,West,271,1.0,1.0,83,0.00,,,0.00,0,Wunderground v.1.15,2013-05-30 03:50:00,
2013-05-29 21:00:00,54.1,49.4,29.95,West,265,0.0,0.0,84,0.00,,,0.00,0,Wunderground v.1.15,2013-05-30 04:00:00,
2013-05-29 21:05:00,53.9,49.5,29.96,WSW,243,0.0,0.0,85,0.00,,,0.00,0,Wunderground v.1.15,2013-05-30 04:05:00,
2013-05-29 21:10:00,53.7,49.3,29.96,WSW,240,0.0,3.0,85,0.00,,,0.00,0,Wunderground v.1.15,2013-05-30 04:10:00,
2013-05-29 21:20:00,53.2,49.1,29.96,WSW,238,1.0,1.0,86,0.00,,,0.00,0,Wunderground v.1.15,2013-05-30 04:20:00,
2013-05-29 21:25:00,53.1,49.0,29.96,WSW,237,1.0,3.0,86,0.00,,,0.00,0,Wunderground v.1.15,2013-05-30 04:25:00,
2013-05-29 21:30:00,52.8,49.0,29.97,WSW,237,1.0,1.0,87,0.00,,,0.00,0,Wunderground v.1.15,2013-05-30 04:30:00,
2013-05-29 21:40:00,52.6,48.8,29.97,WSW,238,0.0,0.0,87,0.00,,,0.00,0,Wunderground v.1.15,2013-05-30 04:40:00,
2013-05-29 21:50:00,52.4,48.9,29.97,West,265,1.0,1.0,88,0.00,,,0.00,0,Wunderground v.1.15,2013-05-30 04:50:00,
2013-05-29 22:00:00,52.3,48.9,29.98,West,265,0.0,0.0,88,0.00,,,0.00,0,Wunderground v.1.15,2013-05-30 05:00:00,
2013-05-29 22:10:00,52.0,48.6,29.98,WSW,250,0.0,0.0,88,0.00,,,0.00,0,Wunderground v.1.15,2013-05-30 05:10:00,
2013-05-29 22:20:00,51.6,48.2,29.97,SW,232,2.0,3.0,88,0.00,,,0.00,0,Wunderground v.1.15,2013-05-30 05:20:00,
2013-05-29 22:30:00,51.4,48.3,29.98,SW,232,0.0,0.0,89,0.00,,,0.00,0,Wunderground v.1.15,2013-05-30 05:30:00,
2013-05-29 22:41:00,51.2,48.1,29.98,SW,217,1.0,1.0,89,0.00,,,0.00,0,Wunderground v.1.15,2013-05-30 05:41:00,
2013-05-29 22:50:00,50.9,48.1,29.98,SW,224,3.0,3.0,90,0.00,,,0.00,0,Wunderground v.1.15,2013-05-30 05:50:00,
2013-05-29 23:00:00,50.7,47.9,29.97,SW,232,3.0,3.0,90,0.00,,,0.00,0,Wunderground v.1.15,2013-05-30 06:00:00,
2013-05-29 23:10:00,50.6,47.8,29.98,SW,223,4.0,6.0,90,0.00,,,0.00,0,Wunderground v.1.15,2013-05-30 06:10:00,
2013-05-29 23:20:00,50.5,48.0,29.97,SSW,206,5.0,8.0,91,0.00,,,0.00,0,Wunderground v.1.15,2013-05-30 06:20:00,
2013-05-29 23:30:00,50.4,47.9,29.97,SW,227,6.0,6.0,91,0.00,,,0.00,0,Wunderground v.1.15,2013-05-30 06:30:00,
2013-05-29 23:40:00,50.4,47.9,29.97,SSW,209,7.0,7.0,91,0.00,,,0.00,0,Wunderground v.1.15,2013-05-30 06:40:00,
2013-05-29 23:50:00,50.5,48.0,29.97,SW,227,8.0,8.0,91,0.00,,,0.00,0,Wunderground v.1.15,2013-05-30 06:50:00,